createdAt,value
2018-09-15T00:02:01.261Z,39.67
2018-09-15T00:04:30.030Z,39.86
2018-09-15T00:06:58.871Z,40.31
2018-09-15T00:09:27.668Z,39.80
2018-09-15T00:11:56.690Z,39.70
2018-09-15T00:14:25.534Z,39.72
2018-09-15T00:16:54.270Z,39.88
2018-09-15T00:19:23.348Z,39.77
2018-09-15T00:21:52.149Z,40.09
2018-09-15T00:24:20.972Z,39.65
2018-09-15T00:26:49.907Z,40.22
2018-09-15T00:29:19.068Z,40.26
2018-09-15T00:31:48.147Z,39.74
2018-09-15T00:34:17.078Z,40.28
2018-09-15T00:36:45.853Z,40.41
2018-09-15T00:39:14.636Z,40.02
2018-09-15T00:41:43.445Z,40.32
2018-09-15T00:44:12.502Z,39.61
2018-09-15T00:46:41.277Z,40.35
2018-09-15T00:49:10.226Z,39.71
2018-09-15T00:51:39.530Z,40.49
2018-09-15T00:54:08.524Z,40.49
2018-09-15T00:56:37.538Z,39.95
2018-09-15T01:01:34.432Z,40.13
2018-09-15T01:04:04.660Z,40.30
2018-09-15T01:09:01.253Z,40.77
2018-09-15T01:11:30.122Z,40.57
2018-09-15T01:13:59.018Z,40.24
2018-09-15T01:16:27.867Z,40.24
2018-09-15T01:18:56.684Z,40.21
2018-09-15T01:21:25.541Z,40.25
2018-09-15T01:23:54.357Z,40.75
2018-09-15T01:26:23.250Z,40.59
2018-09-15T01:28:52.817Z,40.32
2018-09-15T01:31:23.374Z,40.30
2018-09-15T01:33:52.952Z,40.79
2018-09-15T01:36:21.994Z,40.58
2018-09-15T01:38:50.835Z,40.65
2018-09-15T01:41:19.598Z,40.84
2018-09-15T01:43:48.724Z,40.93
2018-09-15T01:46:17.504Z,40.85
2018-09-15T01:48:46.283Z,40.92
2018-09-15T01:51:15.035Z,41.00
2018-09-15T01:53:43.847Z,40.34
2018-09-15T01:56:12.633Z,40.35
2018-09-15T01:58:41.452Z,40.89
2018-09-15T02:01:10.298Z,40.33
2018-09-15T02:03:39.074Z,41.02
2018-09-15T02:06:07.853Z,40.98
2018-09-15T02:08:36.709Z,40.50
2018-09-15T02:11:05.806Z,40.46
2018-09-15T02:13:34.569Z,40.42
2018-09-15T02:16:03.756Z,40.40
2018-09-15T02:18:32.782Z,41.06
2018-09-15T02:21:01.814Z,40.49
2018-09-15T02:23:30.581Z,40.64
2018-09-15T02:25:59.379Z,40.54
2018-09-15T02:28:28.217Z,40.88
2018-09-15T02:30:57.004Z,41.06
2018-09-15T02:33:25.797Z,40.82
2018-09-15T02:35:54.594Z,41.03
2018-09-15T02:38:23.351Z,40.55
2018-09-15T02:40:52.133Z,41.07
2018-09-15T02:43:20.894Z,40.55
2018-09-15T02:45:49.736Z,40.54
2018-09-15T02:48:18.646Z,41.12
2018-09-15T02:50:47.449Z,40.57
2018-09-15T02:53:16.245Z,41.15
2018-09-15T02:55:44.994Z,41.08
2018-09-15T02:58:13.757Z,40.48
2018-09-15T03:00:42.520Z,41.04
2018-09-15T03:03:11.237Z,41.14
2018-09-15T03:05:40.002Z,40.66
2018-09-15T03:08:08.780Z,40.62
2018-09-15T03:10:37.567Z,40.94
2018-09-15T03:13:06.310Z,40.57
2018-09-15T03:15:35.101Z,40.61
2018-09-15T03:18:04.000Z,41.00
2018-09-15T03:20:32.833Z,41.14
2018-09-15T03:23:01.568Z,41.09
2018-09-15T03:25:30.386Z,41.07
2018-09-15T03:27:59.194Z,41.16
2018-09-15T03:30:28.493Z,40.65
2018-09-15T03:32:57.252Z,40.56
2018-09-15T03:35:26.047Z,40.65
2018-09-15T03:37:54.849Z,40.73
2018-09-15T03:40:23.641Z,40.69
2018-09-15T03:42:52.433Z,41.14
2018-09-15T03:45:21.243Z,41.01
2018-09-15T03:47:50.007Z,40.66
2018-09-15T03:50:18.779Z,40.67
2018-09-15T03:52:47.532Z,40.68
2018-09-15T03:55:16.296Z,40.63
2018-09-15T03:57:45.157Z,40.70
2018-09-15T04:00:13.919Z,41.08
2018-09-15T04:02:42.829Z,41.28
2018-09-15T04:05:11.569Z,41.04
2018-09-15T04:07:40.387Z,40.89
2018-09-15T04:10:09.149Z,40.61
2018-09-15T04:12:38.153Z,41.13
2018-09-15T04:15:07.231Z,41.12
2018-09-15T04:17:36.459Z,40.75
2018-09-15T04:20:05.210Z,40.73
2018-09-15T04:22:34.305Z,41.25
2018-09-15T04:25:03.343Z,41.14
2018-09-15T04:27:32.194Z,41.04
2018-09-15T04:30:01.078Z,41.40
2018-09-15T04:32:29.858Z,40.79
2018-09-15T04:34:58.653Z,40.94
2018-09-15T04:37:27.516Z,41.17
2018-09-15T04:39:56.269Z,41.38
2018-09-15T04:42:25.084Z,41.41
2018-09-15T04:44:53.851Z,41.40
2018-09-15T04:47:22.668Z,41.14
2018-09-15T04:49:51.449Z,41.32
2018-09-15T04:52:20.226Z,40.52
2018-09-15T04:54:48.946Z,40.86
2018-09-15T04:57:17.703Z,41.29
2018-09-15T04:59:46.450Z,40.73
2018-09-15T05:02:15.237Z,40.70
2018-09-15T05:04:43.982Z,40.81
2018-09-15T05:07:12.766Z,41.23
2018-09-15T05:09:41.554Z,41.18
2018-09-15T05:12:10.355Z,41.01
2018-09-15T05:14:39.105Z,41.08
2018-09-15T05:17:07.882Z,41.30
2018-09-15T05:19:36.678Z,41.25
2018-09-15T05:22:05.723Z,41.27
2018-09-15T05:24:34.540Z,40.74
2018-09-15T05:27:03.361Z,40.97
2018-09-15T05:29:32.130Z,41.14
2018-09-15T05:32:00.926Z,40.80
2018-09-15T05:34:29.698Z,40.75
2018-09-15T05:36:58.531Z,41.24
2018-09-15T05:39:27.281Z,40.79
2018-09-15T05:41:56.120Z,40.69
2018-09-15T05:44:25.066Z,40.70
2018-09-15T05:46:53.832Z,40.70
2018-09-15T05:49:22.868Z,41.27
2018-09-15T05:51:51.683Z,41.29
2018-09-15T05:54:20.468Z,41.12
2018-09-15T05:56:49.222Z,41.36
2018-09-15T05:59:18.053Z,41.30
2018-09-15T06:01:47.021Z,41.37
2018-09-15T06:04:15.851Z,40.92
2018-09-15T06:06:44.936Z,40.92
2018-09-15T06:09:14.107Z,40.89
2018-09-15T06:11:43.295Z,40.90
2018-09-15T06:14:12.071Z,40.85
2018-09-15T06:16:40.859Z,41.35
2018-09-15T06:19:09.638Z,41.30
2018-09-15T06:21:38.391Z,40.87
2018-09-15T06:24:07.176Z,40.89
2018-09-15T06:26:36.253Z,41.47
2018-09-15T06:29:05.383Z,40.88
2018-09-15T06:31:34.306Z,41.22
2018-09-15T06:34:03.118Z,40.99
2018-09-15T06:36:32.104Z,41.43
2018-09-15T06:39:00.896Z,41.18
2018-09-15T06:41:29.661Z,41.48
2018-09-15T06:43:58.435Z,41.39
2018-09-15T06:46:27.725Z,41.48
2018-09-15T06:48:56.560Z,41.06
2018-09-15T06:51:25.663Z,41.42
2018-09-15T06:53:54.811Z,41.30
2018-09-15T06:56:23.809Z,40.97
2018-09-15T06:58:52.664Z,40.96
2018-09-15T07:01:21.642Z,41.02
2018-09-15T07:03:50.461Z,41.49
2018-09-15T07:06:19.375Z,41.19
2018-09-15T07:08:48.124Z,41.51
2018-09-15T07:11:16.969Z,41.01
2018-09-15T07:13:45.946Z,41.24
2018-09-15T07:16:14.732Z,41.10
2018-09-15T07:18:43.508Z,41.28
2018-09-15T07:21:12.361Z,40.98
2018-09-15T07:23:41.149Z,41.53
2018-09-15T07:26:09.941Z,41.46
2018-09-15T07:28:38.780Z,41.01
2018-09-15T07:31:07.615Z,41.03
2018-09-15T07:33:36.411Z,41.06
2018-09-15T07:36:05.654Z,41.53
2018-09-15T07:38:34.545Z,40.94
2018-09-15T07:41:03.335Z,41.20
2018-09-15T07:43:32.128Z,41.38
2018-09-15T07:46:00.870Z,41.49
2018-09-15T07:48:33.067Z,41.50
2018-09-15T07:51:01.936Z,40.89
2018-09-15T07:53:30.799Z,40.75
2018-09-15T07:55:59.582Z,41.46
2018-09-15T07:58:28.421Z,40.95
2018-09-15T08:00:57.244Z,41.45
2018-09-15T08:03:26.015Z,40.99
2018-09-15T08:05:54.942Z,41.16
2018-09-15T08:08:23.800Z,41.03
2018-09-15T08:10:52.686Z,41.45
2018-09-15T08:13:21.518Z,40.93
2018-09-15T08:15:50.375Z,40.84
2018-09-15T08:18:19.181Z,40.81
2018-09-15T08:20:48.007Z,40.81
2018-09-15T08:23:16.864Z,40.79
2018-09-15T08:25:46.567Z,40.97
2018-09-15T08:28:15.361Z,41.45
2018-09-15T08:30:44.189Z,41.23
2018-09-15T08:33:13.006Z,41.41
2018-09-15T08:35:41.814Z,40.96
2018-09-15T08:38:10.661Z,40.77
2018-09-15T08:40:39.460Z,40.77
2018-09-15T08:43:08.508Z,41.27
2018-09-15T08:45:38.264Z,40.88
2018-09-15T08:48:07.135Z,40.79
2018-09-15T08:50:35.934Z,40.82
2018-09-15T08:53:04.987Z,41.32
2018-09-15T08:55:33.795Z,40.93
2018-09-15T08:58:02.594Z,40.92
2018-09-15T09:00:31.477Z,40.80
2018-09-15T09:03:00.270Z,41.16
2018-09-15T09:05:29.059Z,41.05
2018-09-15T09:07:57.834Z,41.25
2018-09-15T09:10:26.702Z,40.77
2018-09-15T09:12:55.463Z,41.30
2018-09-15T09:15:24.342Z,40.77
2018-09-15T09:17:53.144Z,41.22
2018-09-15T09:20:21.937Z,40.69
2018-09-15T09:22:50.840Z,40.80
2018-09-15T09:25:19.635Z,40.79
2018-09-15T09:27:48.452Z,40.76
2018-09-15T09:30:17.278Z,41.22
2018-09-15T09:32:46.058Z,41.26
2018-09-15T09:35:14.846Z,41.26
2018-09-15T09:37:43.686Z,40.67
2018-09-15T09:40:12.581Z,40.79
2018-09-15T09:42:41.539Z,41.30
2018-09-15T09:45:10.387Z,40.68
2018-09-15T09:47:39.422Z,41.05
2018-09-15T09:50:08.280Z,40.61
2018-09-15T09:52:37.061Z,40.87
2018-09-15T09:55:05.981Z,40.67
2018-09-15T09:57:34.733Z,40.64
2018-09-15T10:00:04.548Z,41.23
2018-09-15T10:02:33.391Z,41.20
2018-09-15T10:05:02.232Z,41.20
2018-09-15T10:07:31.143Z,40.91
2018-09-15T10:10:00.014Z,40.73
2018-09-15T10:12:29.037Z,41.51
2018-09-15T10:14:58.214Z,41.69
2018-09-15T10:17:27.625Z,42.39
2018-09-15T10:19:56.555Z,42.67
2018-09-15T10:22:25.506Z,43.17
2018-09-15T10:24:54.353Z,42.60
2018-09-15T10:27:24.051Z,42.45
2018-09-15T10:29:53.259Z,42.75
2018-09-15T10:32:22.167Z,42.86
2018-09-15T10:34:51.028Z,43.31
2018-09-15T10:37:20.014Z,43.30
2018-09-15T10:39:48.977Z,42.87
2018-09-15T10:42:17.906Z,43.61
2018-09-15T10:44:46.827Z,43.66
2018-09-15T10:47:15.666Z,44.13
2018-09-15T10:49:44.619Z,44.19
2018-09-15T10:52:14.387Z,44.79
2018-09-15T10:54:43.896Z,45.15
2018-09-15T10:57:13.412Z,45.75
2018-09-15T10:59:42.314Z,45.56
2018-09-15T11:02:14.963Z,46.12
2018-09-15T11:04:45.825Z,45.07
2018-09-15T11:07:15.287Z,45.45
2018-09-15T11:09:44.158Z,46.09
2018-09-15T11:12:13.030Z,45.58
2018-09-15T11:14:41.981Z,45.97
2018-09-15T11:18:40.176Z,45.57
2018-09-15T11:21:09.085Z,45.56
2018-09-15T11:23:38.031Z,45.93
2018-09-15T11:26:07.241Z,46.49
2018-09-15T11:28:36.131Z,46.14
2018-09-15T11:31:05.078Z,46.26
2018-09-15T11:33:33.953Z,45.59
2018-09-15T11:36:02.818Z,45.85
2018-09-15T11:38:31.806Z,46.01
2018-09-15T11:41:00.662Z,45.97
2018-09-15T11:43:29.600Z,45.84
2018-09-15T11:45:58.572Z,46.15
2018-09-15T11:48:28.122Z,46.06
2018-09-15T11:50:57.016Z,45.73
2018-09-15T11:53:25.887Z,45.49
2018-09-15T11:55:55.265Z,45.59
2018-09-15T11:58:24.213Z,45.46
2018-09-15T12:00:56.022Z,45.12
2018-09-15T12:03:24.907Z,45.32
2018-09-15T12:05:53.811Z,45.13
2018-09-15T12:08:22.717Z,45.11
2018-09-15T12:10:51.656Z,45.16
2018-09-15T12:13:21.410Z,45.15
2018-09-15T12:15:51.139Z,45.04
2018-09-15T12:18:20.114Z,44.92
2018-09-15T12:20:49.078Z,44.47
2018-09-15T12:23:18.201Z,44.86
2018-09-15T12:25:47.200Z,44.39
2018-09-15T12:28:16.038Z,44.10
2018-09-15T12:30:44.942Z,44.24
2018-09-15T12:33:13.786Z,44.21
2018-09-15T12:35:43.445Z,44.43
2018-09-15T12:38:12.295Z,44.02
2018-09-15T12:40:41.191Z,44.28
2018-09-15T12:43:10.125Z,44.29
2018-09-15T12:45:38.989Z,44.07
2018-09-15T12:48:07.881Z,44.04
2018-09-15T12:50:36.806Z,44.05
2018-09-15T12:53:06.189Z,43.60
2018-09-15T12:55:35.012Z,43.28
2018-09-15T12:58:03.841Z,43.31
2018-09-15T13:00:33.398Z,43.04
2018-09-15T13:03:02.233Z,43.23
2018-09-15T13:05:31.247Z,43.38
2018-09-15T13:08:00.128Z,43.40
2018-09-15T13:10:28.989Z,42.97
2018-09-15T13:12:58.707Z,43.03
2018-09-15T13:15:28.432Z,43.08
2018-09-15T13:17:57.304Z,42.98
2018-09-15T13:20:26.313Z,43.11
2018-09-15T13:22:55.114Z,43.43
2018-09-15T13:25:23.995Z,42.82
2018-09-15T13:27:53.489Z,42.88
2018-09-15T13:30:22.348Z,43.25
2018-09-15T13:32:51.716Z,43.10
2018-09-15T13:35:20.591Z,42.49
2018-09-15T13:37:49.563Z,43.12
2018-09-15T13:40:18.917Z,42.45
2018-09-15T13:42:47.796Z,43.16
2018-09-15T13:45:17.613Z,42.48
2018-09-15T13:47:46.556Z,43.03
2018-09-15T13:50:15.386Z,42.52
2018-09-15T13:52:44.192Z,43.04
2018-09-15T13:55:13.080Z,42.38
2018-09-15T13:57:41.984Z,43.04
2018-09-15T14:00:10.867Z,42.53
2018-09-15T14:02:44.130Z,42.56
2018-09-15T14:05:14.384Z,42.73
2018-09-15T14:07:43.614Z,42.62
2018-09-15T14:10:19.008Z,43.04
2018-09-15T14:12:41.988Z,42.80
2018-09-15T14:15:10.904Z,43.03
2018-09-15T14:17:39.854Z,42.39
2018-09-15T14:20:08.788Z,42.40
2018-09-15T14:22:37.800Z,42.77
2018-09-15T14:25:06.785Z,42.85
2018-09-15T14:27:35.631Z,42.66
2018-09-15T14:30:04.637Z,42.70
2018-09-15T14:32:33.497Z,42.73
2018-09-15T14:35:02.698Z,42.17
2018-09-15T14:37:31.610Z,42.18
2018-09-15T14:40:00.429Z,42.68
2018-09-15T14:42:29.287Z,42.04
2018-09-15T14:44:58.297Z,42.50
2018-09-15T14:47:27.228Z,42.08
2018-09-15T14:49:56.224Z,41.83
2018-09-15T14:52:25.181Z,41.67
2018-09-15T14:54:54.086Z,41.73
2018-09-15T14:57:23.297Z,41.60
2018-09-15T14:59:52.177Z,42.11
2018-09-15T15:02:21.596Z,41.91
2018-09-15T15:04:50.571Z,41.72
2018-09-15T15:07:19.450Z,41.60
2018-09-15T15:09:48.287Z,41.35
2018-09-15T15:12:17.499Z,41.25
2018-09-15T15:14:47.011Z,41.16
2018-09-15T15:17:16.071Z,41.11
2018-09-15T15:19:45.135Z,41.50
2018-09-15T15:22:14.170Z,40.92
2018-09-15T15:24:43.056Z,41.59
2018-09-15T15:27:12.126Z,41.50
2018-09-15T15:29:40.980Z,41.51
2018-09-15T15:32:09.908Z,41.65
2018-09-15T15:34:38.843Z,41.69
2018-09-15T15:37:07.754Z,41.43
2018-09-15T15:39:37.020Z,41.96
2018-09-15T15:42:05.985Z,41.20
2018-09-15T15:44:34.843Z,41.98
2018-09-15T15:47:05.010Z,41.49
2018-09-15T15:49:33.906Z,41.48
2018-09-15T15:52:03.088Z,41.67
2018-09-15T15:54:31.936Z,41.82
2018-09-15T15:57:00.852Z,42.46
2018-09-15T15:59:29.808Z,41.97
2018-09-15T16:01:58.644Z,42.53
2018-09-15T16:04:27.511Z,42.03
2018-09-15T16:06:56.376Z,42.64
2018-09-15T16:09:25.286Z,42.38
2018-09-15T16:11:54.069Z,42.18
2018-09-15T16:14:22.947Z,42.84
2018-09-15T16:16:51.894Z,42.95
2018-09-15T16:19:20.669Z,42.54
2018-09-15T16:21:49.486Z,43.02
2018-09-15T16:24:18.310Z,42.53
2018-09-15T16:26:47.187Z,43.08
2018-09-15T16:29:15.989Z,42.97
2018-09-15T16:31:44.885Z,42.66
2018-09-15T16:34:13.790Z,43.27
2018-09-15T16:36:42.605Z,43.41
2018-09-15T16:39:12.752Z,42.87
2018-09-15T16:41:41.634Z,42.98
2018-09-15T16:44:10.439Z,43.54
2018-09-15T16:46:39.271Z,43.54
2018-09-15T16:49:08.503Z,43.44
2018-09-15T16:51:37.598Z,42.97
2018-09-15T16:54:07.489Z,42.95
2018-09-15T16:56:36.934Z,43.45
2018-09-15T16:59:06.176Z,42.95
2018-09-15T17:01:35.061Z,43.54
2018-09-15T17:04:04.156Z,43.58
2018-09-15T17:06:32.998Z,43.01
2018-09-15T17:09:01.977Z,43.69
2018-09-15T17:11:30.831Z,43.11
2018-09-15T17:13:59.658Z,43.26
2018-09-15T17:16:28.472Z,43.19
2018-09-15T17:18:57.362Z,43.69
2018-09-15T17:21:26.222Z,43.79
2018-09-15T17:23:55.043Z,43.69
2018-09-15T17:26:23.852Z,43.18
2018-09-15T17:28:52.725Z,43.28
2018-09-15T17:31:21.720Z,43.74
2018-09-15T17:33:50.485Z,43.76
2018-09-15T17:36:19.377Z,43.81
2018-09-15T17:38:48.258Z,43.81
2018-09-15T17:41:17.066Z,43.68
2018-09-15T17:43:45.933Z,43.26
2018-09-15T17:46:14.851Z,43.68
2018-09-15T17:48:43.676Z,43.29
2018-09-15T17:51:12.529Z,43.39
2018-09-15T17:53:41.459Z,43.67
2018-09-15T17:56:10.996Z,43.75
2018-09-15T17:58:39.868Z,43.25
2018-09-15T18:01:08.688Z,43.41
2018-09-15T18:03:37.646Z,43.18
2018-09-15T18:06:06.497Z,43.46
2018-09-15T18:08:35.361Z,43.55
2018-09-15T18:11:04.149Z,43.09
2018-09-15T18:13:32.992Z,43.71
2018-09-15T18:16:01.830Z,43.09
2018-09-15T18:18:30.697Z,43.09
2018-09-15T18:20:59.535Z,43.36
2018-09-15T18:23:28.435Z,43.70
2018-09-15T18:25:57.338Z,43.61
2018-09-15T18:28:26.179Z,42.91
2018-09-15T18:30:54.979Z,43.54
2018-09-15T18:33:23.908Z,42.95
2018-09-15T18:35:52.797Z,43.16
2018-09-15T18:38:21.656Z,42.91
2018-09-15T18:40:50.549Z,42.93
2018-09-15T18:43:19.368Z,43.38
2018-09-15T18:45:48.263Z,42.85
2018-09-15T18:48:17.061Z,42.85
2018-09-15T18:50:45.876Z,43.48
2018-09-15T18:53:14.674Z,43.30
2018-09-15T18:55:43.594Z,42.74
2018-09-15T18:58:12.539Z,43.30
2018-09-15T19:00:41.398Z,43.13
2018-09-15T19:03:14.406Z,43.36
2018-09-15T19:05:43.595Z,43.38
2018-09-15T19:08:12.615Z,42.65
2018-09-15T19:10:41.550Z,43.30
2018-09-15T19:13:10.620Z,42.56
2018-09-15T19:15:39.459Z,42.97
2018-09-15T19:18:08.250Z,42.56
2018-09-15T19:20:37.028Z,42.76
2018-09-15T19:23:06.110Z,42.84
2018-09-15T19:25:35.024Z,42.52
2018-09-15T19:28:03.865Z,42.45
2018-09-15T19:30:32.686Z,42.93
2018-09-15T19:33:01.501Z,42.46
2018-09-15T19:35:30.297Z,42.58
2018-09-15T19:37:59.211Z,42.82
2018-09-15T19:40:28.037Z,42.72
2018-09-15T19:42:56.850Z,42.87
2018-09-15T19:45:25.819Z,42.21
2018-09-15T19:47:54.850Z,42.24
2018-09-15T19:50:23.793Z,42.81
2018-09-15T19:52:52.649Z,42.70
2018-09-15T19:55:21.616Z,42.25
2018-09-15T19:57:50.533Z,42.73
2018-09-15T20:00:19.366Z,42.21
2018-09-15T20:02:48.214Z,42.15
2018-09-15T20:05:17.162Z,42.63
2018-09-15T20:07:45.950Z,42.56
2018-09-15T20:10:14.762Z,42.02
2018-09-15T20:12:43.717Z,41.91
2018-09-15T20:15:21.352Z,42.38
2018-09-15T20:17:48.806Z,42.29
2018-09-15T20:20:16.366Z,41.93
2018-09-15T20:22:45.174Z,41.92
2018-09-15T20:25:14.045Z,42.42
2018-09-15T20:27:43.048Z,41.99
2018-09-15T20:30:11.900Z,42.35
2018-09-15T20:32:40.864Z,42.11
2018-09-15T20:35:09.681Z,41.88
2018-09-15T20:37:39.250Z,41.85
2018-09-15T20:40:09.082Z,42.14
2018-09-15T20:42:38.281Z,41.64
2018-09-15T20:45:07.566Z,41.59
2018-09-15T20:47:37.144Z,41.58
2018-09-15T20:50:06.177Z,42.10
2018-09-15T20:52:35.206Z,41.56
2018-09-15T20:55:04.142Z,41.48
2018-09-15T20:57:32.940Z,41.77
2018-09-15T21:00:01.724Z,42.03
2018-09-15T21:02:30.625Z,42.00
2018-09-15T21:04:59.448Z,41.41
2018-09-15T21:07:28.270Z,41.63
2018-09-15T21:09:57.036Z,41.98
2018-09-15T21:12:25.896Z,41.63
2018-09-15T21:14:54.710Z,41.28
2018-09-15T21:17:23.717Z,41.89
2018-09-15T21:19:52.518Z,41.87
2018-09-15T21:22:21.314Z,41.53
2018-09-15T21:24:50.094Z,41.87
2018-09-15T21:27:19.079Z,41.22
2018-09-15T21:29:48.010Z,41.20
2018-09-15T21:32:16.889Z,41.61
2018-09-15T21:34:45.873Z,41.69
2018-09-15T21:37:14.672Z,41.19
2018-09-15T21:39:43.481Z,41.07
2018-09-15T21:42:12.299Z,41.75
2018-09-15T21:44:41.095Z,41.21
2018-09-15T21:47:09.912Z,41.17
2018-09-15T21:49:38.767Z,41.27
2018-09-15T21:52:07.650Z,41.48
2018-09-15T21:54:36.542Z,41.07
2018-09-15T21:57:05.631Z,41.01
2018-09-15T21:59:34.506Z,41.04
2018-09-15T22:02:03.343Z,41.58
2018-09-15T22:04:32.114Z,41.52
2018-09-15T22:07:00.926Z,41.55
2018-09-15T22:09:29.816Z,40.81
2018-09-15T22:11:58.695Z,40.90
2018-09-15T22:14:27.512Z,40.89
2018-09-15T22:16:56.426Z,40.68
2018-09-15T22:19:25.275Z,40.68
2018-09-15T22:21:54.118Z,40.84
2018-09-15T22:24:23.128Z,41.17
2018-09-15T22:26:52.474Z,40.67
2018-09-15T22:29:21.454Z,40.61
2018-09-15T22:31:50.461Z,40.88
2018-09-15T22:34:19.265Z,40.95
2018-09-15T22:36:48.126Z,40.53
2018-09-15T22:39:16.982Z,40.57
2018-09-15T22:41:45.802Z,41.03
2018-09-15T22:44:14.591Z,41.22
2018-09-15T22:46:43.453Z,41.18
2018-09-15T22:49:12.254Z,40.65
2018-09-15T22:51:41.052Z,41.20
2018-09-15T22:54:09.922Z,40.56
2018-09-15T22:56:38.748Z,40.48
2018-09-15T22:59:07.911Z,40.41
2018-09-15T23:01:36.709Z,40.85
2018-09-15T23:04:07.750Z,40.94
2018-09-15T23:06:36.618Z,40.80
2018-09-15T23:09:07.570Z,40.33
2018-09-15T23:11:36.349Z,40.88
2018-09-15T23:14:06.210Z,40.27
2018-09-15T23:16:35.020Z,40.75
2018-09-15T23:19:03.909Z,40.59
2018-09-15T23:21:32.948Z,40.18
2018-09-15T23:24:01.809Z,40.11
2018-09-15T23:26:30.616Z,40.06
2018-09-15T23:28:59.450Z,40.13
2018-09-15T23:31:28.186Z,40.13
2018-09-15T23:33:56.960Z,40.01
2018-09-15T23:36:25.871Z,40.08
2018-09-15T23:38:54.715Z,40.54
2018-09-15T23:41:23.461Z,39.87
2018-09-15T23:43:52.233Z,39.91
2018-09-15T23:46:21.010Z,39.80
2018-09-15T23:48:49.792Z,40.33
2018-09-15T23:51:18.688Z,39.70
2018-09-15T23:53:47.494Z,40.29
2018-09-15T23:56:16.235Z,39.73
2018-09-15T23:58:45.020Z,40.22
